sensor_id;sensor_type;location;lat;lon;timestamp;P1;durP1;ratioP1;P2;durP2;ratioP2
73693;SDS011;61997;53.974;11.670;2023-08-08T00:00:54;6.50;;;3.85;;
73693;SDS011;61997;53.974;11.670;2023-08-08T00:03:27;5.88;;;3.33;;
73693;SDS011;61997;53.974;11.670;2023-08-08T00:06:04;7.78;;;3.60;;
73693;SDS011;61997;53.974;11.670;2023-08-08T00:08:41;6.63;;;3.35;;
73693;SDS011;61997;53.974;11.670;2023-08-08T00:11:15;7.10;;;3.40;;
73693;SDS011;61997;53.974;11.670;2023-08-08T00:13:52;6.28;;;3.60;;
73693;SDS011;61997;53.974;11.670;2023-08-08T00:16:28;5.70;;;3.72;;
73693;SDS011;61997;53.974;11.670;2023-08-08T00:18:56;4.50;;;2.63;;
73693;SDS011;61997;53.974;11.670;2023-08-08T00:21:30;4.03;;;2.58;;
73693;SDS011;61997;53.974;11.670;2023-08-08T00:24:10;8.25;;;3.70;;
73693;SDS011;61997;53.974;11.670;2023-08-08T00:26:41;4.95;;;2.88;;
73693;SDS011;61997;53.974;11.670;2023-08-08T00:29:13;4.88;;;2.92;;
73693;SDS011;61997;53.974;11.670;2023-08-08T00:31:55;4.82;;;2.63;;
73693;SDS011;61997;53.974;11.670;2023-08-08T00:34:32;5.63;;;2.67;;
73693;SDS011;61997;53.974;11.670;2023-08-08T00:37:02;6.95;;;2.95;;
73693;SDS011;61997;53.974;11.670;2023-08-08T00:39:32;4.82;;;3.13;;
73693;SDS011;61997;53.974;11.670;2023-08-08T00:42:01;5.82;;;2.60;;
73693;SDS011;61997;53.974;11.670;2023-08-08T00:44:31;5.38;;;2.50;;
73693;SDS011;61997;53.974;11.670;2023-08-08T00:46:59;5.45;;;2.58;;
73693;SDS011;61997;53.974;11.670;2023-08-08T00:49:27;4.57;;;2.42;;
73693;SDS011;61997;53.974;11.670;2023-08-08T00:51:56;5.45;;;2.50;;
73693;SDS011;61997;53.974;11.670;2023-08-08T00:54:25;5.72;;;2.63;;
73693;SDS011;61997;53.974;11.670;2023-08-08T00:56:52;5.30;;;2.50;;
73693;SDS011;61997;53.974;11.670;2023-08-08T00:59:23;6.75;;;2.55;;
73693;SDS011;61997;53.974;11.670;2023-08-08T01:01:51;5.40;;;2.40;;
73693;SDS011;61997;53.974;11.670;2023-08-08T01:04:19;3.80;;;2.00;;
73693;SDS011;61997;53.974;11.670;2023-08-08T01:06:58;4.50;;;2.28;;
73693;SDS011;61997;53.974;11.670;2023-08-08T01:09:31;5.10;;;2.10;;
73693;SDS011;61997;53.974;11.670;2023-08-08T01:12:05;6.45;;;2.63;;
73693;SDS011;61997;53.974;11.670;2023-08-08T01:14:35;5.13;;;2.17;;
73693;SDS011;61997;53.974;11.670;2023-08-08T01:17:03;4.20;;;2.00;;
73693;SDS011;61997;53.974;11.670;2023-08-08T01:19:32;4.05;;;1.85;;
73693;SDS011;61997;53.974;11.670;2023-08-08T01:22:06;4.75;;;2.55;;
73693;SDS011;61997;53.974;11.670;2023-08-08T01:24:36;5.28;;;2.30;;
73693;SDS011;61997;53.974;11.670;2023-08-08T01:27:05;3.30;;;1.70;;
73693;SDS011;61997;53.974;11.670;2023-08-08T01:29:33;4.78;;;1.70;;
73693;SDS011;61997;53.974;11.670;2023-08-08T01:32:00;3.85;;;2.08;;
73693;SDS011;61997;53.974;11.670;2023-08-08T01:34:29;4.68;;;2.10;;
73693;SDS011;61997;53.974;11.670;2023-08-08T01:39:34;4.22;;;2.05;;
73693;SDS011;61997;53.974;11.670;2023-08-08T01:42:06;3.33;;;1.80;;
73693;SDS011;61997;53.974;11.670;2023-08-08T01:44:42;3.15;;;1.55;;
73693;SDS011;61997;53.974;11.670;2023-08-08T01:47:16;4.28;;;1.90;;
73693;SDS011;61997;53.974;11.670;2023-08-08T01:49:51;3.97;;;1.75;;
73693;SDS011;61997;53.974;11.670;2023-08-08T01:52:26;3.15;;;1.65;;
73693;SDS011;61997;53.974;11.670;2023-08-08T01:54:57;2.78;;;1.85;;
73693;SDS011;61997;53.974;11.670;2023-08-08T01:57:31;2.95;;;1.85;;
73693;SDS011;61997;53.974;11.670;2023-08-08T02:00:01;2.83;;;1.40;;
73693;SDS011;61997;53.974;11.670;2023-08-08T02:02:34;3.28;;;1.83;;
73693;SDS011;61997;53.974;11.670;2023-08-08T02:05:13;5.05;;;1.95;;
73693;SDS011;61997;53.974;11.670;2023-08-08T02:07:50;4.70;;;1.52;;
73693;SDS011;61997;53.974;11.670;2023-08-08T02:10:29;2.80;;;1.40;;
73693;SDS011;61997;53.974;11.670;2023-08-08T02:13:02;3.08;;;1.73;;
73693;SDS011;61997;53.974;11.670;2023-08-08T02:15:38;3.22;;;1.30;;
73693;SDS011;61997;53.974;11.670;2023-08-08T02:18:19;2.88;;;1.45;;
73693;SDS011;61997;53.974;11.670;2023-08-08T02:23:29;4.25;;;1.50;;
73693;SDS011;61997;53.974;11.670;2023-08-08T02:26:04;2.00;;;1.23;;
73693;SDS011;61997;53.974;11.670;2023-08-08T02:28:37;2.10;;;1.20;;
73693;SDS011;61997;53.974;11.670;2023-08-08T02:31:08;2.67;;;1.67;;
73693;SDS011;61997;53.974;11.670;2023-08-08T02:33:49;2.15;;;1.35;;
73693;SDS011;61997;53.974;11.670;2023-08-08T02:36:23;3.67;;;1.63;;
73693;SDS011;61997;53.974;11.670;2023-08-08T02:39:00;2.63;;;1.15;;
73693;SDS011;61997;53.974;11.670;2023-08-08T02:41:40;2.97;;;1.20;;
73693;SDS011;61997;53.974;11.670;2023-08-08T02:44:14;3.20;;;1.40;;
73693;SDS011;61997;53.974;11.670;2023-08-08T02:46:48;2.47;;;1.33;;
73693;SDS011;61997;53.974;11.670;2023-08-08T02:49:25;2.17;;;1.10;;
73693;SDS011;61997;53.974;11.670;2023-08-08T02:51:57;3.58;;;1.40;;
73693;SDS011;61997;53.974;11.670;2023-08-08T02:54:38;2.80;;;1.30;;
73693;SDS011;61997;53.974;11.670;2023-08-08T02:57:15;3.10;;;1.15;;
73693;SDS011;61997;53.974;11.670;2023-08-08T02:59:44;2.85;;;1.35;;
73693;SDS011;61997;53.974;11.670;2023-08-08T03:02:10;3.33;;;1.27;;
73693;SDS011;61997;53.974;11.670;2023-08-08T03:04:39;1.90;;;1.10;;
73693;SDS011;61997;53.974;11.670;2023-08-08T03:07:18;1.80;;;1.23;;
73693;SDS011;61997;53.974;11.670;2023-08-08T03:09:52;2.83;;;1.10;;
73693;SDS011;61997;53.974;11.670;2023-08-08T03:12:25;2.50;;;1.17;;
73693;SDS011;61997;53.974;11.670;2023-08-08T03:15:00;2.45;;;1.10;;
73693;SDS011;61997;53.974;11.670;2023-08-08T03:20:22;2.88;;;1.25;;
73693;SDS011;61997;53.974;11.670;2023-08-08T03:25:30;2.47;;;1.00;;
73693;SDS011;61997;53.974;11.670;2023-08-08T03:27:58;2.95;;;1.08;;
73693;SDS011;61997;53.974;11.670;2023-08-08T03:30:37;2.08;;;1.08;;
73693;SDS011;61997;53.974;11.670;2023-08-08T03:33:05;3.08;;;1.10;;
73693;SDS011;61997;53.974;11.670;2023-08-08T03:35:44;2.55;;;1.00;;
73693;SDS011;61997;53.974;11.670;2023-08-08T03:38:20;3.40;;;1.13;;
73693;SDS011;61997;53.974;11.670;2023-08-08T03:40:54;3.53;;;1.00;;
73693;SDS011;61997;53.974;11.670;2023-08-08T03:43:33;2.80;;;1.25;;
73693;SDS011;61997;53.974;11.670;2023-08-08T03:46:01;1.92;;;0.90;;
73693;SDS011;61997;53.974;11.670;2023-08-08T03:48:40;1.40;;;0.98;;
73693;SDS011;61997;53.974;11.670;2023-08-08T03:51:09;1.73;;;0.80;;
73693;SDS011;61997;53.974;11.670;2023-08-08T03:53:42;2.13;;;0.95;;
73693;SDS011;61997;53.974;11.670;2023-08-08T03:56:19;1.60;;;0.80;;
73693;SDS011;61997;53.974;11.670;2023-08-08T03:59:02;1.50;;;0.90;;
73693;SDS011;61997;53.974;11.670;2023-08-08T04:01:37;1.83;;;1.10;;
73693;SDS011;61997;53.974;11.670;2023-08-08T04:04:12;1.25;;;0.82;;
73693;SDS011;61997;53.974;11.670;2023-08-08T04:06:44;1.83;;;1.00;;
73693;SDS011;61997;53.974;11.670;2023-08-08T04:12:00;3.67;;;1.10;;
73693;SDS011;61997;53.974;11.670;2023-08-08T04:14:39;1.52;;;1.00;;
73693;SDS011;61997;53.974;11.670;2023-08-08T04:17:14;2.90;;;1.02;;
73693;SDS011;61997;53.974;11.670;2023-08-08T04:19:56;2.63;;;0.88;;
73693;SDS011;61997;53.974;11.670;2023-08-08T04:22:38;3.72;;;1.00;;
73693;SDS011;61997;53.974;11.670;2023-08-08T04:25:09;3.75;;;1.10;;
73693;SDS011;61997;53.974;11.670;2023-08-08T04:27:49;2.85;;;0.90;;
73693;SDS011;61997;53.974;11.670;2023-08-08T04:30:27;2.05;;;1.05;;
73693;SDS011;61997;53.974;11.670;2023-08-08T04:33:02;3.13;;;0.88;;
73693;SDS011;61997;53.974;11.670;2023-08-08T04:35:37;2.42;;;1.08;;
73693;SDS011;61997;53.974;11.670;2023-08-08T04:38:17;2.35;;;1.00;;
73693;SDS011;61997;53.974;11.670;2023-08-08T04:40:48;3.63;;;1.30;;
73693;SDS011;61997;53.974;11.670;2023-08-08T04:43:22;2.63;;;0.90;;
73693;SDS011;61997;53.974;11.670;2023-08-08T04:45:58;1.42;;;1.10;;
73693;SDS011;61997;53.974;11.670;2023-08-08T04:48:38;1.95;;;0.85;;
73693;SDS011;61997;53.974;11.670;2023-08-08T04:51:13;2.10;;;0.90;;
73693;SDS011;61997;53.974;11.670;2023-08-08T04:53:47;1.65;;;1.10;;
73693;SDS011;61997;53.974;11.670;2023-08-08T04:56:18;3.28;;;1.10;;
73693;SDS011;61997;53.974;11.670;2023-08-08T04:58:46;3.53;;;1.20;;
73693;SDS011;61997;53.974;11.670;2023-08-08T05:01:13;2.45;;;1.15;;
73693;SDS011;61997;53.974;11.670;2023-08-08T05:03:43;2.45;;;0.82;;
73693;SDS011;61997;53.974;11.670;2023-08-08T05:06:12;1.50;;;0.95;;
73693;SDS011;61997;53.974;11.670;2023-08-08T05:08:41;2.22;;;1.27;;
73693;SDS011;61997;53.974;11.670;2023-08-08T05:11:12;2.55;;;1.00;;
73693;SDS011;61997;53.974;11.670;2023-08-08T05:13:39;2.63;;;0.95;;
73693;SDS011;61997;53.974;11.670;2023-08-08T05:18:37;2.20;;;1.17;;
73693;SDS011;61997;53.974;11.670;2023-08-08T05:21:12;2.33;;;0.90;;
73693;SDS011;61997;53.974;11.670;2023-08-08T05:23:52;1.88;;;0.88;;
73693;SDS011;61997;53.974;11.670;2023-08-08T05:26:19;2.05;;;0.77;;
73693;SDS011;61997;53.974;11.670;2023-08-08T05:29:00;2.88;;;1.08;;
73693;SDS011;61997;53.974;11.670;2023-08-08T05:31:38;2.53;;;1.00;;
73693;SDS011;61997;53.974;11.670;2023-08-08T05:34:12;1.70;;;0.70;;
73693;SDS011;61997;53.974;11.670;2023-08-08T05:36:44;3.45;;;1.33;;
73693;SDS011;61997;53.974;11.670;2023-08-08T05:39:22;2.65;;;0.90;;
73693;SDS011;61997;53.974;11.670;2023-08-08T05:41:59;3.28;;;1.00;;
73693;SDS011;61997;53.974;11.670;2023-08-08T05:44:27;1.95;;;0.90;;
73693;SDS011;61997;53.974;11.670;2023-08-08T05:47:08;1.50;;;0.65;;
73693;SDS011;61997;53.974;11.670;2023-08-08T05:49:39;1.23;;;0.60;;
73693;SDS011;61997;53.974;11.670;2023-08-08T05:52:13;0.98;;;0.65;;
73693;SDS011;61997;53.974;11.670;2023-08-08T05:54:50;2.55;;;0.85;;
73693;SDS011;61997;53.974;11.670;2023-08-08T05:57:25;1.35;;;0.68;;
73693;SDS011;61997;53.974;11.670;2023-08-08T06:00:02;2.53;;;0.90;;
73693;SDS011;61997;53.974;11.670;2023-08-08T06:02:40;1.98;;;0.90;;
73693;SDS011;61997;53.974;11.670;2023-08-08T06:05:13;2.75;;;1.00;;
73693;SDS011;61997;53.974;11.670;2023-08-08T06:07:49;1.73;;;0.80;;
73693;SDS011;61997;53.974;11.670;2023-08-08T06:10:26;1.55;;;0.80;;
73693;SDS011;61997;53.974;11.670;2023-08-08T06:12:54;1.17;;;0.60;;
73693;SDS011;61997;53.974;11.670;2023-08-08T06:15:31;2.08;;;1.00;;
73693;SDS011;61997;53.974;11.670;2023-08-08T06:18:10;1.20;;;0.75;;
73693;SDS011;61997;53.974;11.670;2023-08-08T06:20:48;2.58;;;1.00;;
73693;SDS011;61997;53.974;11.670;2023-08-08T06:23:26;1.45;;;0.90;;
73693;SDS011;61997;53.974;11.670;2023-08-08T06:25:53;1.70;;;0.85;;
73693;SDS011;61997;53.974;11.670;2023-08-08T06:28:27;2.80;;;1.00;;
73693;SDS011;61997;53.974;11.670;2023-08-08T06:31:04;2.17;;;0.80;;
73693;SDS011;61997;53.974;11.670;2023-08-08T06:33:38;2.38;;;1.02;;
73693;SDS011;61997;53.974;11.670;2023-08-08T06:36:14;1.50;;;0.70;;
73693;SDS011;61997;53.974;11.670;2023-08-08T06:38:51;1.10;;;0.70;;
73693;SDS011;61997;53.974;11.670;2023-08-08T06:41:25;1.50;;;0.80;;
73693;SDS011;61997;53.974;11.670;2023-08-08T06:44:04;2.88;;;0.73;;
73693;SDS011;61997;53.974;11.670;2023-08-08T06:46:33;1.45;;;0.75;;
73693;SDS011;61997;53.974;11.670;2023-08-08T06:49:07;2.63;;;0.95;;
73693;SDS011;61997;53.974;11.670;2023-08-08T06:51:45;2.85;;;1.10;;
73693;SDS011;61997;53.974;11.670;2023-08-08T06:54:14;1.52;;;0.70;;
73693;SDS011;61997;53.974;11.670;2023-08-08T06:56:55;2.20;;;0.90;;
73693;SDS011;61997;53.974;11.670;2023-08-08T06:59:34;1.90;;;0.70;;
73693;SDS011;61997;53.974;11.670;2023-08-08T07:02:11;3.08;;;0.77;;
73693;SDS011;61997;53.974;11.670;2023-08-08T07:04:54;2.55;;;0.68;;
73693;SDS011;61997;53.974;11.670;2023-08-08T07:07:34;1.73;;;0.90;;
73693;SDS011;61997;53.974;11.670;2023-08-08T07:10:05;1.48;;;0.68;;
73693;SDS011;61997;53.974;11.670;2023-08-08T07:12:42;1.10;;;0.63;;
73693;SDS011;61997;53.974;11.670;2023-08-08T07:15:18;1.40;;;0.60;;
73693;SDS011;61997;53.974;11.670;2023-08-08T07:17:58;1.85;;;0.70;;
73693;SDS011;61997;53.974;11.670;2023-08-08T07:20:35;1.40;;;0.70;;
73693;SDS011;61997;53.974;11.670;2023-08-08T07:23:09;0.77;;;0.52;;
73693;SDS011;61997;53.974;11.670;2023-08-08T07:25:48;1.23;;;0.60;;
73693;SDS011;61997;53.974;11.670;2023-08-08T07:28:25;1.38;;;0.77;;
73693;SDS011;61997;53.974;11.670;2023-08-08T07:30:59;1.42;;;0.73;;
73693;SDS011;61997;53.974;11.670;2023-08-08T07:33:34;1.67;;;0.77;;
73693;SDS011;61997;53.974;11.670;2023-08-08T07:36:07;1.95;;;0.70;;
73693;SDS011;61997;53.974;11.670;2023-08-08T07:38:43;1.40;;;0.68;;
73693;SDS011;61997;53.974;11.670;2023-08-08T07:41:20;1.85;;;0.65;;
73693;SDS011;61997;53.974;11.670;2023-08-08T07:43:58;3.10;;;1.00;;
73693;SDS011;61997;53.974;11.670;2023-08-08T07:46:42;2.38;;;1.05;;
73693;SDS011;61997;53.974;11.670;2023-08-08T07:49:12;1.75;;;0.70;;
73693;SDS011;61997;53.974;11.670;2023-08-08T07:51:40;1.70;;;0.70;;
73693;SDS011;61997;53.974;11.670;2023-08-08T07:54:07;1.08;;;0.60;;
73693;SDS011;61997;53.974;11.670;2023-08-08T07:56:43;1.33;;;0.70;;
73693;SDS011;61997;53.974;11.670;2023-08-08T07:59:18;1.35;;;0.63;;
73693;SDS011;61997;53.974;11.670;2023-08-08T08:01:49;1.30;;;0.70;;
73693;SDS011;61997;53.974;11.670;2023-08-08T08:04:23;1.75;;;0.80;;
73693;SDS011;61997;53.974;11.670;2023-08-08T08:06:50;1.63;;;0.73;;
73693;SDS011;61997;53.974;11.670;2023-08-08T08:09:32;1.52;;;0.60;;
73693;SDS011;61997;53.974;11.670;2023-08-08T08:12:11;0.68;;;0.45;;
73693;SDS011;61997;53.974;11.670;2023-08-08T08:14:51;1.23;;;0.60;;
73693;SDS011;61997;53.974;11.670;2023-08-08T08:17:22;1.13;;;0.60;;
73693;SDS011;61997;53.974;11.670;2023-08-08T08:19:57;2.28;;;0.75;;
73693;SDS011;61997;53.974;11.670;2023-08-08T08:22:39;2.83;;;0.80;;
73693;SDS011;61997;53.974;11.670;2023-08-08T08:25:10;2.15;;;0.80;;
73693;SDS011;61997;53.974;11.670;2023-08-08T08:27:44;3.33;;;0.90;;
73693;SDS011;61997;53.974;11.670;2023-08-08T08:30:21;3.83;;;1.40;;
73693;SDS011;61997;53.974;11.670;2023-08-08T08:32:57;3.03;;;1.20;;
73693;SDS011;61997;53.974;11.670;2023-08-08T08:35:38;3.13;;;1.15;;
73693;SDS011;61997;53.974;11.670;2023-08-08T08:38:14;1.90;;;0.98;;
73693;SDS011;61997;53.974;11.670;2023-08-08T08:40:44;2.08;;;1.00;;
73693;SDS011;61997;53.974;11.670;2023-08-08T08:43:17;3.15;;;1.23;;
73693;SDS011;61997;53.974;11.670;2023-08-08T08:45:54;1.45;;;0.80;;
73693;SDS011;61997;53.974;11.670;2023-08-08T08:48:37;2.95;;;1.15;;
73693;SDS011;61997;53.974;11.670;2023-08-08T08:51:10;2.67;;;1.30;;
73693;SDS011;61997;53.974;11.670;2023-08-08T08:53:43;1.45;;;0.80;;
73693;SDS011;61997;53.974;11.670;2023-08-08T08:56:22;1.75;;;0.95;;
73693;SDS011;61997;53.974;11.670;2023-08-08T08:58:55;1.80;;;0.98;;
73693;SDS011;61997;53.974;11.670;2023-08-08T09:01:25;2.55;;;1.13;;
73693;SDS011;61997;53.974;11.670;2023-08-08T09:04:00;2.00;;;0.90;;
73693;SDS011;61997;53.974;11.670;2023-08-08T09:06:34;3.03;;;1.38;;
73693;SDS011;61997;53.974;11.670;2023-08-08T09:09:09;1.73;;;0.90;;
73693;SDS011;61997;53.974;11.670;2023-08-08T09:11:50;1.90;;;1.30;;
73693;SDS011;61997;53.974;11.670;2023-08-08T09:14:21;1.83;;;1.08;;
73693;SDS011;61997;53.974;11.670;2023-08-08T09:16:51;2.28;;;1.02;;
73693;SDS011;61997;53.974;11.670;2023-08-08T09:19:24;2.38;;;1.10;;
73693;SDS011;61997;53.974;11.670;2023-08-08T09:22:01;1.20;;;0.80;;
73693;SDS011;61997;53.974;11.670;2023-08-08T09:24:37;3.35;;;1.10;;
73693;SDS011;61997;53.974;11.670;2023-08-08T09:27:18;1.85;;;0.95;;
73693;SDS011;61997;53.974;11.670;2023-08-08T09:29:54;2.63;;;1.10;;
73693;SDS011;61997;53.974;11.670;2023-08-08T09:32:32;3.10;;;1.08;;
73693;SDS011;61997;53.974;11.670;2023-08-08T09:35:10;2.85;;;0.80;;
73693;SDS011;61997;53.974;11.670;2023-08-08T09:37:42;2.28;;;0.80;;
73693;SDS011;61997;53.974;11.670;2023-08-08T09:40:19;2.08;;;0.90;;
73693;SDS011;61997;53.974;11.670;2023-08-08T09:42:59;2.47;;;0.82;;
73693;SDS011;61997;53.974;11.670;2023-08-08T09:45:38;2.28;;;0.95;;
73693;SDS011;61997;53.974;11.670;2023-08-08T09:48:14;3.97;;;1.00;;
73693;SDS011;61997;53.974;11.670;2023-08-08T09:50:50;2.95;;;0.95;;
73693;SDS011;61997;53.974;11.670;2023-08-08T09:53:30;1.98;;;0.80;;
73693;SDS011;61997;53.974;11.670;2023-08-08T09:56:06;2.97;;;1.17;;
73693;SDS011;61997;53.974;11.670;2023-08-08T09:58:40;2.28;;;0.75;;
73693;SDS011;61997;53.974;11.670;2023-08-08T10:01:23;1.55;;;1.08;;
73693;SDS011;61997;53.974;11.670;2023-08-08T10:04:01;2.22;;;0.80;;
73693;SDS011;61997;53.974;11.670;2023-08-08T10:06:35;2.60;;;0.98;;
73693;SDS011;61997;53.974;11.670;2023-08-08T10:09:05;1.70;;;0.95;;
73693;SDS011;61997;53.974;11.670;2023-08-08T10:11:44;2.28;;;0.88;;
73693;SDS011;61997;53.974;11.670;2023-08-08T10:14:16;2.25;;;0.80;;
73693;SDS011;61997;53.974;11.670;2023-08-08T10:16:59;2.63;;;0.82;;
73693;SDS011;61997;53.974;11.670;2023-08-08T10:19:38;1.52;;;0.77;;
73693;SDS011;61997;53.974;11.670;2023-08-08T10:22:12;1.70;;;0.68;;
73693;SDS011;61997;53.974;11.670;2023-08-08T10:24:47;3.35;;;1.00;;
73693;SDS011;61997;53.974;11.670;2023-08-08T10:27:35;1.60;;;0.80;;
73693;SDS011;61997;53.974;11.670;2023-08-08T10:30:10;1.60;;;0.80;;
73693;SDS011;61997;53.974;11.670;2023-08-08T10:32:48;3.72;;;0.95;;
73693;SDS011;61997;53.974;11.670;2023-08-08T10:35:37;4.07;;;0.93;;
73693;SDS011;61997;53.974;11.670;2023-08-08T10:38:11;1.65;;;0.90;;
73693;SDS011;61997;53.974;11.670;2023-08-08T10:40:57;1.25;;;0.82;;
73693;SDS011;61997;53.974;11.670;2023-08-08T10:43:30;1.23;;;0.57;;
73693;SDS011;61997;53.974;11.670;2023-08-08T10:46:11;2.05;;;1.00;;
73693;SDS011;61997;53.974;11.670;2023-08-08T10:48:56;1.50;;;0.73;;
73693;SDS011;61997;53.974;11.670;2023-08-08T10:51:37;1.17;;;0.60;;
73693;SDS011;61997;53.974;11.670;2023-08-08T10:54:22;1.98;;;0.80;;
73693;SDS011;61997;53.974;11.670;2023-08-08T10:57:01;1.40;;;0.73;;
73693;SDS011;61997;53.974;11.670;2023-08-08T10:59:41;1.75;;;0.70;;
73693;SDS011;61997;53.974;11.670;2023-08-08T11:02:14;1.70;;;0.75;;
73693;SDS011;61997;53.974;11.670;2023-08-08T11:04:52;1.60;;;0.65;;
73693;SDS011;61997;53.974;11.670;2023-08-08T11:07:29;2.88;;;0.80;;
73693;SDS011;61997;53.974;11.670;2023-08-08T11:10:05;1.50;;;0.63;;
73693;SDS011;61997;53.974;11.670;2023-08-08T11:12:31;2.40;;;0.80;;
73693;SDS011;61997;53.974;11.670;2023-08-08T11:15:11;3.03;;;0.75;;
73693;SDS011;61997;53.974;11.670;2023-08-08T11:17:54;1.58;;;0.60;;
73693;SDS011;61997;53.974;11.670;2023-08-08T11:20:43;3.63;;;1.13;;
73693;SDS011;61997;53.974;11.670;2023-08-08T11:23:16;1.13;;;0.60;;
73693;SDS011;61997;53.974;11.670;2023-08-08T11:25:56;1.80;;;0.70;;
73693;SDS011;61997;53.974;11.670;2023-08-08T11:28:29;1.98;;;0.60;;
73693;SDS011;61997;53.974;11.670;2023-08-08T11:31:00;1.73;;;0.63;;
73693;SDS011;61997;53.974;11.670;2023-08-08T11:33:38;1.20;;;0.60;;
73693;SDS011;61997;53.974;11.670;2023-08-08T11:36:05;0.75;;;0.50;;
73693;SDS011;61997;53.974;11.670;2023-08-08T11:38:39;2.17;;;0.60;;
73693;SDS011;61997;53.974;11.670;2023-08-08T11:41:10;2.03;;;0.70;;
73693;SDS011;61997;53.974;11.670;2023-08-08T11:43:49;1.30;;;0.57;;
73693;SDS011;61997;53.974;11.670;2023-08-08T11:46:18;2.17;;;0.68;;
73693;SDS011;61997;53.974;11.670;2023-08-08T11:48:52;1.38;;;0.60;;
73693;SDS011;61997;53.974;11.670;2023-08-08T11:51:37;1.00;;;0.60;;
73693;SDS011;61997;53.974;11.670;2023-08-08T11:54:12;1.60;;;0.43;;
73693;SDS011;61997;53.974;11.670;2023-08-08T11:56:41;1.58;;;0.57;;
73693;SDS011;61997;53.974;11.670;2023-08-08T11:59:11;2.88;;;0.77;;
73693;SDS011;61997;53.974;11.670;2023-08-08T12:01:42;1.40;;;0.70;;
73693;SDS011;61997;53.974;11.670;2023-08-08T12:04:12;2.78;;;0.80;;
73693;SDS011;61997;53.974;11.670;2023-08-08T12:06:42;1.73;;;0.65;;
73693;SDS011;61997;53.974;11.670;2023-08-08T12:09:13;0.98;;;0.63;;
73693;SDS011;61997;53.974;11.670;2023-08-08T12:11:41;1.17;;;0.65;;
73693;SDS011;61997;53.974;11.670;2023-08-08T12:14:13;1.10;;;0.50;;
73693;SDS011;61997;53.974;11.670;2023-08-08T12:16:43;0.80;;;0.45;;
73693;SDS011;61997;53.974;11.670;2023-08-08T12:19:12;0.95;;;0.60;;
73693;SDS011;61997;53.974;11.670;2023-08-08T12:21:43;1.02;;;0.65;;
73693;SDS011;61997;53.974;11.670;2023-08-08T12:24:13;1.52;;;0.70;;
73693;SDS011;61997;53.974;11.670;2023-08-08T12:26:40;1.35;;;0.60;;
73693;SDS011;61997;53.974;11.670;2023-08-08T12:29:09;1.75;;;0.68;;
73693;SDS011;61997;53.974;11.670;2023-08-08T12:31:40;2.38;;;0.70;;
73693;SDS011;61997;53.974;11.670;2023-08-08T12:34:09;1.83;;;0.73;;
73693;SDS011;61997;53.974;11.670;2023-08-08T12:36:36;2.20;;;0.57;;
73693;SDS011;61997;53.974;11.670;2023-08-08T12:39:05;1.63;;;0.70;;
73693;SDS011;61997;53.974;11.670;2023-08-08T12:41:34;1.88;;;0.52;;
73693;SDS011;61997;53.974;11.670;2023-08-08T12:44:03;1.05;;;0.60;;
73693;SDS011;61997;53.974;11.670;2023-08-08T12:46:30;2.03;;;0.80;;
73693;SDS011;61997;53.974;11.670;2023-08-08T12:48:56;0.85;;;0.50;;
73693;SDS011;61997;53.974;11.670;2023-08-08T12:51:22;1.67;;;0.70;;
73693;SDS011;61997;53.974;11.670;2023-08-08T12:53:49;1.23;;;0.60;;
73693;SDS011;61997;53.974;11.670;2023-08-08T12:56:15;0.40;;;0.38;;
73693;SDS011;61997;53.974;11.670;2023-08-08T13:01:15;1.13;;;0.82;;
73693;SDS011;61997;53.974;11.670;2023-08-08T13:03:45;0.70;;;0.50;;
73693;SDS011;61997;53.974;11.670;2023-08-08T13:06:15;2.00;;;0.60;;
73693;SDS011;61997;53.974;11.670;2023-08-08T13:08:43;1.50;;;0.60;;
73693;SDS011;61997;53.974;11.670;2023-08-08T13:11:11;3.00;;;0.70;;
73693;SDS011;61997;53.974;11.670;2023-08-08T13:13:39;1.65;;;0.70;;
73693;SDS011;61997;53.974;11.670;2023-08-08T13:16:05;4.22;;;0.80;;
73693;SDS011;61997;53.974;11.670;2023-08-08T13:18:31;0.75;;;0.50;;
73693;SDS011;61997;53.974;11.670;2023-08-08T13:21:05;1.52;;;0.57;;
73693;SDS011;61997;53.974;11.670;2023-08-08T13:23:44;1.00;;;0.47;;
73693;SDS011;61997;53.974;11.670;2023-08-08T13:26:11;1.55;;;0.60;;
73693;SDS011;61997;53.974;11.670;2023-08-08T13:28:40;1.05;;;0.45;;
73693;SDS011;61997;53.974;11.670;2023-08-08T13:31:18;0.98;;;0.60;;
73693;SDS011;61997;53.974;11.670;2023-08-08T13:33:54;2.05;;;0.70;;
73693;SDS011;61997;53.974;11.670;2023-08-08T13:36:25;0.90;;;0.50;;
73693;SDS011;61997;53.974;11.670;2023-08-08T13:39:09;1.17;;;0.50;;
73693;SDS011;61997;53.974;11.670;2023-08-08T13:41:39;1.65;;;0.57;;
73693;SDS011;61997;53.974;11.670;2023-08-08T13:44:10;1.85;;;0.50;;
73693;SDS011;61997;53.974;11.670;2023-08-08T13:46:49;1.50;;;0.73;;
73693;SDS011;61997;53.974;11.670;2023-08-08T13:49:26;0.75;;;0.40;;
73693;SDS011;61997;53.974;11.670;2023-08-08T13:52:09;1.20;;;0.52;;
73693;SDS011;61997;53.974;11.670;2023-08-08T13:54:43;1.23;;;0.50;;
73693;SDS011;61997;53.974;11.670;2023-08-08T13:57:24;0.98;;;0.43;;
73693;SDS011;61997;53.974;11.670;2023-08-08T14:00:06;1.17;;;0.57;;
73693;SDS011;61997;53.974;11.670;2023-08-08T14:02:45;1.20;;;0.43;;
73693;SDS011;61997;53.974;11.670;2023-08-08T14:05:22;1.17;;;0.50;;
73693;SDS011;61997;53.974;11.670;2023-08-08T14:07:57;0.50;;;0.40;;
73693;SDS011;61997;53.974;11.670;2023-08-08T14:10:33;1.27;;;0.50;;
73693;SDS011;61997;53.974;11.670;2023-08-08T14:13:10;0.88;;;0.35;;
73693;SDS011;61997;53.974;11.670;2023-08-08T14:15:38;1.05;;;0.50;;
73693;SDS011;61997;53.974;11.670;2023-08-08T14:18:09;0.95;;;0.52;;
73693;SDS011;61997;53.974;11.670;2023-08-08T14:20:37;0.85;;;0.47;;
73693;SDS011;61997;53.974;11.670;2023-08-08T14:23:06;1.30;;;0.60;;
73693;SDS011;61997;53.974;11.670;2023-08-08T14:25:38;1.52;;;0.60;;
73693;SDS011;61997;53.974;11.670;2023-08-08T14:28:07;0.90;;;0.50;;
73693;SDS011;61997;53.974;11.670;2023-08-08T14:30:33;1.00;;;0.57;;
73693;SDS011;61997;53.974;11.670;2023-08-08T14:33:01;1.65;;;0.50;;
73693;SDS011;61997;53.974;11.670;2023-08-08T14:35:28;1.52;;;0.50;;
73693;SDS011;61997;53.974;11.670;2023-08-08T14:37:55;1.20;;;0.60;;
73693;SDS011;61997;53.974;11.670;2023-08-08T14:40:26;0.98;;;0.50;;
73693;SDS011;61997;53.974;11.670;2023-08-08T14:42:57;0.75;;;0.43;;
73693;SDS011;61997;53.974;11.670;2023-08-08T14:45:26;1.63;;;0.50;;
73693;SDS011;61997;53.974;11.670;2023-08-08T14:47:55;2.58;;;0.60;;
73693;SDS011;61997;53.974;11.670;2023-08-08T14:50:24;1.80;;;0.60;;
73693;SDS011;61997;53.974;11.670;2023-08-08T14:52:55;1.45;;;0.55;;
73693;SDS011;61997;53.974;11.670;2023-08-08T14:55:23;0.95;;;0.40;;
73693;SDS011;61997;53.974;11.670;2023-08-08T14:57:53;1.95;;;0.60;;
73693;SDS011;61997;53.974;11.670;2023-08-08T15:00:24;0.77;;;0.43;;
73693;SDS011;61997;53.974;11.670;2023-08-08T15:02:55;0.70;;;0.40;;
73693;SDS011;61997;53.974;11.670;2023-08-08T15:05:23;1.10;;;0.57;;
73693;SDS011;61997;53.974;11.670;2023-08-08T15:07:48;1.17;;;0.73;;
73693;SDS011;61997;53.974;11.670;2023-08-08T15:10:14;0.73;;;0.45;;
73693;SDS011;61997;53.974;11.670;2023-08-08T15:12:40;1.02;;;0.60;;
73693;SDS011;61997;53.974;11.670;2023-08-08T15:15:12;1.15;;;0.70;;
73693;SDS011;61997;53.974;11.670;2023-08-08T15:17:41;1.88;;;0.50;;
73693;SDS011;61997;53.974;11.670;2023-08-08T15:20:11;2.65;;;0.70;;
73693;SDS011;61997;53.974;11.670;2023-08-08T15:22:41;1.42;;;0.60;;
73693;SDS011;61997;53.974;11.670;2023-08-08T15:25:12;0.52;;;0.40;;
73693;SDS011;61997;53.974;11.670;2023-08-08T15:27:41;1.10;;;0.60;;
73693;SDS011;61997;53.974;11.670;2023-08-08T15:30:09;0.57;;;0.40;;